Terminal Aerodrome Forecast
Issued by NWS Twin Cities, MN

Home | Current Version | Previous Version | Graphics & Text | Print | Product List | Glossary On
Versions: 1 2 3 4 5 6 7 8 9 10 11 12 13 14 15 16 17 18 19 20 21 22 23 24 25
000
FTUS43 KMPX 041454 AAA
TAFMSP
TAF AMD
KMSP 041454Z 0415/0518 29009KT P6SM BKN070
     FM041700 29015G21KT P6SM SCT025 BKN050
     FM050100 30009KT P6SM FEW030
     FM050800 28006KT P6SM SKC=

USA.gov is the U.S. government's official web portal to all federal, state and local government web resources and services.